Time;durP1;ratioP1;P1;durP2;ratioP2;P2;SDS_P1;SDS_P2;PMS_P1;PMS_P2;Temp;Humidity;BMP_temperature;BMP_pressure;BME280_temperature;BME280_humidity;BME280_pressure;Samples;Min_cycle;Max_cycle;Signal;HPM_P1;HPM_P2
2021/12/23 00:01:35;;;;;;;40.87;22.37;;;-3.20;91.20;;;;;;5067914;28;20471;-46
2021/12/23 00:04:02;;;;;;;39.33;20.10;;;-3.20;90.90;;;;;;5058617;28;20526;-46
2021/12/23 00:06:29;;;;;;;33.80;18.50;;;-3.10;90.70;;;;;;5059930;28;20482;-46
2021/12/23 00:08:57;;;;;;;37.73;18.97;;;-3.10;90.50;;;;;;5071479;28;20841;-46
2021/12/23 00:11:25;;;;;;;32.47;18.87;;;-3.10;90.50;;;;;;5064465;28;21022;-46
2021/12/23 00:14:01;;;;;;;34.77;19.30;;;-3.00;90.50;;;;;;5052557;28;20595;-46
2021/12/23 00:16:41;;;;;;;47.83;21.33;;;-3.10;90.20;;;;;;5066463;28;21099;-46
2021/12/23 00:19:18;;;;;;;32.53;18.77;;;-3.00;90.40;;;;;;5057656;28;20653;-46
2021/12/23 00:24:30;;;;;;;35.27;19.20;;;-3.20;90.20;;;;;;5045223;28;20888;-46
2021/12/23 00:26:58;;;;;;;37.17;21.97;;;-3.30;90.50;;;;;;5051418;28;20473;-46
2021/12/23 00:29:25;;;;;;;45.00;20.50;;;-3.20;90.80;;;;;;5066931;28;20541;-46
2021/12/23 00:31:52;;;;;;;45.37;21.60;;;-3.20;90.70;;;;;;5055693;28;20535;-46
2021/12/23 00:34:18;;;;;;;44.07;22.23;;;-3.10;90.80;;;;;;5084498;28;20502;-46
2021/12/23 00:36:46;;;;;;;38.43;19.33;;;-3.20;90.50;;;;;;5063505;28;20484;-46
2021/12/23 00:39:15;;;;;;;35.27;20.37;;;-3.30;90.70;;;;;;5062238;28;20479;-46
2021/12/23 00:41:44;;;;;;;38.90;20.50;;;-3.30;91.00;;;;;;5065638;28;21076;-46
2021/12/23 00:44:12;;;;;;;37.67;21.33;;;-3.30;91.20;;;;;;5063267;28;20474;-46
2021/12/23 00:46:39;;;;;;;36.80;20.23;;;-3.20;91.20;;;;;;5041120;28;21052;-47
2021/12/23 00:49:06;;;;;;;40.33;21.83;;;-3.10;91.10;;;;;;5060318;27;21423;-46
2021/12/23 00:51:33;;;;;;;36.07;20.53;;;-3.00;91.00;;;;;;5064458;28;20569;-46
2021/12/23 00:54:04;;;;;;;47.37;21.70;;;-2.90;90.90;;;;;;5065826;28;20489;-45
2021/12/23 00:56:32;;;;;;;42.73;22.10;;;-2.90;90.70;;;;;;5063760;28;20477;-46
2021/12/23 00:59:19;;;;;;;42.97;20.60;;;-2.80;90.50;;;;;;5049868;28;21168;-46
2021/12/23 01:01:46;;;;;;;41.27;20.97;;;-2.80;90.50;;;;;;5049981;28;20996;-46
2021/12/23 01:04:13;;;;;;;37.33;20.37;;;-2.80;90.40;;;;;;5075120;28;20482;-45
2021/12/23 01:06:40;;;;;;;37.20;21.07;;;-2.80;90.60;;;;;;5077207;28;20474;-46
2021/12/23 01:09:07;;;;;;;45.73;20.50;;;-2.70;90.70;;;;;;5081899;28;20466;-46
2021/12/23 01:11:34;;;;;;;42.23;21.57;;;-2.70;90.90;;;;;;5080582;28;20898;-46
2021/12/23 01:14:13;;;;;;;40.80;21.97;;;-2.70;91.00;;;;;;5079554;28;20525;-46
2021/12/23 01:17:00;;;;;;;50.83;24.57;;;-2.60;91.10;;;;;;5067200;28;20523;-46
2021/12/23 01:19:27;;;;;;;46.77;22.40;;;-2.60;90.90;;;;;;5083335;28;20561;-46
2021/12/23 01:21:54;;;;;;;56.60;27.10;;;-2.60;90.90;;;;;;5081731;28;20478;-46
2021/12/23 01:24:26;;;;;;;54.37;27.53;;;-2.60;90.70;;;;;;5080128;28;20539;-46
2021/12/23 01:26:53;;;;;;;40.20;22.70;;;-2.60;90.60;;;;;;5077178;28;20478;-46
2021/12/23 01:29:20;;;;;;;47.20;24.40;;;-2.60;90.70;;;;;;5081116;28;20496;-46
2021/12/23 01:31:48;;;;;;;41.03;24.27;;;-2.60;90.70;;;;;;5082757;28;20495;-46
2021/12/23 01:34:15;;;;;;;38.73;22.00;;;-2.50;90.70;;;;;;5081233;28;20505;-46
2021/12/23 01:36:41;;;;;;;44.53;21.40;;;-2.50;90.60;;;;;;5072880;28;20513;-46
2021/12/23 01:39:08;;;;;;;40.23;21.17;;;-2.50;90.60;;;;;;5080897;28;20593;-46
2021/12/23 01:41:35;;;;;;;38.70;21.20;;;-2.60;90.30;;;;;;5081644;28;20484;-46
2021/12/23 01:44:04;;;;;;;51.73;23.80;;;-2.60;90.50;;;;;;5081648;28;20516;-45
2021/12/23 01:46:31;;;;;;;47.40;23.97;;;-2.70;90.80;;;;;;5075321;28;20481;-46
2021/12/23 01:48:59;;;;;;;51.50;25.70;;;-2.70;91.20;;;;;;5080501;28;20537;-45
2021/12/23 01:51:26;;;;;;;50.30;25.80;;;-2.70;91.40;;;;;;5080437;28;20485;-46
2021/12/23 01:53:53;;;;;;;53.77;26.30;;;-2.60;91.50;;;;;;5073028;28;20498;-46
2021/12/23 01:56:19;;;;;;;48.90;25.83;;;-2.50;91.40;;;;;;5070630;28;20492;-46
2021/12/23 01:58:47;;;;;;;47.70;26.03;;;-2.40;91.20;;;;;;5087833;28;20545;-46
2021/12/23 02:01:14;;;;;;;48.77;26.37;;;-2.40;91.10;;;;;;5081857;28;20520;-46
2021/12/23 02:03:41;;;;;;;48.50;27.43;;;-2.30;91.20;;;;;;5068200;28;20483;-46
2021/12/23 02:06:10;;;;;;;51.70;26.70;;;-2.30;91.30;;;;;;5040205;28;20483;-46
2021/12/23 02:08:39;;;;;;;55.43;27.83;;;-2.30;91.20;;;;;;5072425;28;20484;-46
2021/12/23 02:11:08;;;;;;;50.40;26.23;;;-2.20;91.20;;;;;;5071966;28;20493;-46
2021/12/23 02:13:36;;;;;;;55.97;27.50;;;-2.20;91.10;;;;;;5081008;28;20487;-46
2021/12/23 02:16:04;;;;;;;42.13;22.87;;;-2.20;91.00;;;;;;5086783;28;20518;-46
2021/12/23 02:18:31;;;;;;;53.17;26.73;;;-2.30;90.90;;;;;;5079710;28;20525;-46
2021/12/23 02:21:00;;;;;;;48.40;24.37;;;-2.30;90.90;;;;;;5070709;28;20490;-46
2021/12/23 02:23:27;;;;;;;39.80;21.60;;;-2.40;91.20;;;;;;5085433;28;20491;-46
2021/12/23 02:25:54;;;;;;;46.53;24.40;;;-2.40;91.20;;;;;;5080506;28;20880;-46
2021/12/23 02:28:22;;;;;;;42.80;25.40;;;-2.50;91.10;;;;;;5078589;28;20534;-46
2021/12/23 02:30:52;;;;;;;52.40;27.03;;;-2.60;91.40;;;;;;5082777;28;20473;-49
2021/12/23 02:33:20;;;;;;;38.57;21.83;;;-2.50;91.70;;;;;;5080286;28;20591;-46
2021/12/23 02:35:47;;;;;;;48.17;24.50;;;-2.50;91.50;;;;;;5088244;28;20482;-45
2021/12/23 02:38:15;;;;;;;45.80;26.23;;;-2.40;91.30;;;;;;5075723;28;20536;-46
2021/12/23 02:40:43;;;;;;;74.27;30.10;;;-2.50;90.90;;;;;;5081881;28;20482;-45
2021/12/23 02:43:12;;;;;;;51.43;24.27;;;-2.70;91.10;;;;;;5081156;28;20487;-46
2021/12/23 02:45:40;;;;;;;47.13;23.60;;;-2.80;91.50;;;;;;5077496;28;20944;-46
2021/12/23 02:48:12;;;;;;;55.33;26.07;;;-2.80;91.50;;;;;;5077801;28;20533;-46
2021/12/23 02:50:39;;;;;;;52.43;24.97;;;-2.70;91.60;;;;;;5074141;28;20494;-46
2021/12/23 02:53:06;;;;;;;46.90;23.97;;;-2.60;91.70;;;;;;5081240;28;20483;-46
2021/12/23 02:55:34;;;;;;;54.07;26.80;;;-2.50;91.70;;;;;;5080394;28;20598;-46
2021/12/23 02:58:01;;;;;;;54.83;27.27;;;-2.60;91.60;;;;;;5080314;28;20551;-46
2021/12/23 03:00:29;;;;;;;49.60;26.37;;;-2.50;91.90;;;;;;5078581;28;20547;-45
2021/12/23 03:02:56;;;;;;;50.23;23.50;;;-2.50;91.60;;;;;;5043058;28;20471;-46
2021/12/23 03:05:22;;;;;;;50.80;25.60;;;-2.50;91.70;;;;;;5076236;28;20537;-45
2021/12/23 03:07:49;;;;;;;54.30;23.90;;;-2.50;91.90;;;;;;5060600;28;20891;-46
2021/12/23 03:10:16;;;;;;;52.67;23.47;;;-2.50;91.90;;;;;;5068218;28;20479;-46
2021/12/23 03:12:44;;;;;;;45.30;24.50;;;-2.40;91.90;;;;;;5068840;28;20488;-46
2021/12/23 03:15:11;;;;;;;50.67;24.23;;;-2.30;91.70;;;;;;5101772;27;20877;-46
2021/12/23 03:17:38;;;;;;;49.07;23.60;;;-2.30;91.50;;;;;;5074513;28;20484;-46
2021/12/23 03:20:06;;;;;;;44.57;22.87;;;-2.20;91.40;;;;;;5075649;28;20884;-47
2021/12/23 03:22:32;;;;;;;52.17;27.57;;;-2.20;91.30;;;;;;5080939;28;21009;-46
2021/12/23 03:24:59;;;;;;;58.47;25.63;;;-2.20;91.40;;;;;;5072131;28;20491;-46
2021/12/23 03:27:26;;;;;;;52.33;25.43;;;-2.30;91.40;;;;;;5084486;27;20486;-46
2021/12/23 03:29:56;;;;;;;48.07;24.60;;;-2.30;91.30;;;;;;5078562;28;20479;-46
2021/12/23 03:32:23;;;;;;;51.70;25.00;;;-2.30;91.40;;;;;;5076371;28;20478;-45
2021/12/23 03:34:50;;;;;;;50.70;24.07;;;-2.30;91.30;;;;;;5089457;28;20755;-46
2021/12/23 03:37:17;;;;;;;46.67;23.17;;;-2.20;91.40;;;;;;5081940;28;20475;-47
2021/12/23 03:39:47;;;;;;;48.43;26.83;;;-2.20;91.40;;;;;;5082173;28;20469;-46
2021/12/23 03:42:14;;;;;;;49.57;24.40;;;-2.20;91.40;;;;;;5076652;28;20474;-46
2021/12/23 03:44:42;;;;;;;41.97;24.00;;;-2.10;91.20;;;;;;5083065;28;20482;-45
2021/12/23 03:47:10;;;;;;;47.93;26.50;;;-2.10;91.10;;;;;;5074567;28;20540;-46
2021/12/23 03:49:36;;;;;;;50.93;26.37;;;-2.20;90.90;;;;;;5075858;28;20912;-46
2021/12/23 03:52:04;;;;;;;42.23;23.00;;;-2.40;90.70;;;;;;5078389;28;20549;-45
2021/12/23 03:54:31;;;;;;;53.43;23.77;;;-2.40;91.10;;;;;;5077838;28;20484;-46
2021/12/23 03:56:57;;;;;;;43.77;23.67;;;-2.40;91.30;;;;;;5074101;28;20488;-46
2021/12/23 03:59:24;;;;;;;47.63;25.30;;;-2.40;91.30;;;;;;5089630;28;20556;-48
2021/12/23 04:01:51;;;;;;;35.70;19.03;;;-2.40;91.40;;;;;;5080659;28;20531;-46
2021/12/23 04:04:19;;;;;;;47.33;25.40;;;-2.50;91.40;;;;;;5078555;28;20476;-45
2021/12/23 04:06:46;;;;;;;46.90;23.10;;;-2.50;91.90;;;;;;5079052;28;20478;-47
2021/12/23 04:09:12;;;;;;;48.10;25.03;;;-2.40;91.90;;;;;;5076683;28;20487;-46
2021/12/23 04:11:39;;;;;;;42.90;23.27;;;-2.30;92.20;;;;;;5073625;28;20774;-46
2021/12/23 04:14:06;;;;;;;55.43;27.20;;;-2.40;91.90;;;;;;5082901;28;20541;-46
2021/12/23 04:16:33;;;;;;;48.60;24.60;;;-2.30;92.40;;;;;;5069943;28;20477;-46
2021/12/23 04:19:00;;;;;;;55.73;25.23;;;-2.20;92.30;;;;;;5086103;28;20482;-46
2021/12/23 04:21:28;;;;;;;46.70;23.50;;;-2.20;92.10;;;;;;5073065;28;20483;-45
2021/12/23 04:23:54;;;;;;;47.53;22.17;;;-2.10;92.00;;;;;;5073607;28;20512;-45
2021/12/23 04:26:21;;;;;;;44.90;23.63;;;-2.10;91.90;;;;;;5073625;28;20480;-46
2021/12/23 04:28:48;;;;;;;53.27;27.00;;;-2.10;91.80;;;;;;5079252;28;20492;-46
2021/12/23 04:31:17;;;;;;;44.33;25.30;;;-2.10;91.70;;;;;;5092914;28;20508;-46
2021/12/23 04:33:44;;;;;;;60.23;25.97;;;-2.20;91.60;;;;;;5085124;28;20559;-46
2021/12/23 04:36:11;;;;;;;60.63;25.87;;;-2.20;92.00;;;;;;5080002;28;20491;-46
2021/12/23 04:38:42;;;;;;;46.40;26.27;;;-2.30;92.10;;;;;;5081567;28;20478;-45
2021/12/23 04:41:10;;;;;;;62.73;26.53;;;-2.40;92.40;;;;;;5056014;27;20510;-46
2021/12/23 04:43:37;;;;;;;60.47;26.17;;;-2.40;92.80;;;;;;5075954;28;20529;-46
2021/12/23 04:46:04;;;;;;;53.73;27.57;;;-2.50;92.70;;;;;;5071930;28;20483;-45
2021/12/23 04:48:32;;;;;;;64.43;25.93;;;-2.50;93.00;;;;;;5079800;28;20471;-46
2021/12/23 04:50:59;;;;;;;60.87;26.70;;;-2.40;93.20;;;;;;5074350;28;20472;-46
2021/12/23 04:53:26;;;;;;;48.27;25.20;;;-2.30;93.00;;;;;;5061820;28;20559;-45
2021/12/23 04:55:55;;;;;;;54.10;25.23;;;-2.20;93.00;;;;;;5088192;28;20550;-46
2021/12/23 04:58:22;;;;;;;52.27;26.00;;;-2.10;92.80;;;;;;5079768;28;20482;-45
2021/12/23 05:00:51;;;;;;;55.57;28.97;;;-2.10;92.70;;;;;;5080386;28;20483;-44
2021/12/23 05:03:19;;;;;;;54.23;25.30;;;-2.00;92.60;;;;;;5074747;28;20487;-45
2021/12/23 05:05:47;;;;;;;59.90;26.50;;;-1.90;92.60;;;;;;5076660;28;20491;-45
2021/12/23 05:08:14;;;;;;;47.97;24.90;;;-1.80;92.50;;;;;;5067492;28;20483;-46
2021/12/23 05:10:42;;;;;;;49.77;25.10;;;-1.80;92.50;;;;;;5084719;28;20513;-45
2021/12/23 05:13:10;;;;;;;58.40;27.63;;;-1.80;92.30;;;;;;5077128;28;20982;-46
2021/12/23 05:15:37;;;;;;;55.43;26.07;;;-1.70;92.40;;;;;;5084590;28;20498;-46
2021/12/23 05:18:04;;;;;;;47.87;24.50;;;-1.70;92.50;;;;;;5070058;27;20482;-47
2021/12/23 05:20:31;;;;;;;54.00;22.87;;;-1.80;92.30;;;;;;5082601;28;20482;-46
2021/12/23 05:22:58;;;;;;;48.40;24.63;;;-1.90;92.40;;;;;;5077029;28;20473;-46
2021/12/23 05:25:25;;;;;;;60.53;29.03;;;-1.90;92.60;;;;;;5083192;28;20495;-45
2021/12/23 05:27:54;;;;;;;55.27;26.13;;;-2.00;92.70;;;;;;5082041;28;20960;-45
2021/12/23 05:30:23;;;;;;;50.00;24.57;;;-2.10;92.50;;;;;;5071884;28;20509;-46
2021/12/23 05:32:50;;;;;;;51.03;23.33;;;-2.20;92.70;;;;;;5092823;28;20478;-46
2021/12/23 05:35:18;;;;;;;44.40;22.30;;;-2.10;92.80;;;;;;5080245;28;20481;-46
2021/12/23 05:37:45;;;;;;;53.93;26.13;;;-2.00;92.70;;;;;;5072948;28;20831;-46
2021/12/23 05:40:14;;;;;;;47.70;23.77;;;-1.90;92.60;;;;;;5082902;28;20487;-46
2021/12/23 05:42:41;;;;;;;54.57;26.17;;;-1.90;92.40;;;;;;5073430;28;20501;-46
2021/12/23 05:45:09;;;;;;;50.03;24.17;;;-2.00;92.40;;;;;;5084735;28;20530;-46
2021/12/23 05:47:37;;;;;;;52.87;28.93;;;-2.00;93.00;;;;;;5074938;28;20495;-45
2021/12/23 05:50:06;;;;;;;69.20;30.30;;;-2.10;93.20;;;;;;5083573;28;20487;-46
2021/12/23 05:52:33;;;;;;;61.07;26.87;;;-2.10;93.50;;;;;;5075590;28;20475;-45
2021/12/23 05:55:02;;;;;;;48.97;24.10;;;-2.10;93.70;;;;;;5079694;28;20524;-45
2021/12/23 05:57:28;;;;;;;47.60;23.30;;;-2.00;93.40;;;;;;5087253;28;20766;-45
2021/12/23 06:03:19;;;;;;;47.77;24.30;;;-1.90;92.40;;;;;;5054938;28;21108;-46
2021/12/23 06:05:45;;;;;;;53.77;24.70;;;-1.90;92.70;;;;;;5076637;28;20539;-49
2021/12/23 06:08:12;;;;;;;65.30;23.80;;;-1.80;92.70;;;;;;5083542;28;20479;-46
2021/12/23 06:10:39;;;;;;;68.00;27.97;;;-1.80;92.70;;;;;;5077581;28;20541;-45
2021/12/23 06:13:06;;;;;;;57.90;26.53;;;-1.70;92.70;;;;;;5081133;28;20469;-46
2021/12/23 06:15:32;;;;;;;58.47;25.43;;;-1.70;92.60;;;;;;5091068;28;20494;-46
2021/12/23 06:17:59;;;;;;;54.83;24.07;;;-1.60;92.50;;;;;;5080753;28;20487;-46
2021/12/23 06:20:27;;;;;;;42.60;24.80;;;-1.60;92.50;;;;;;5079721;28;20490;-45
2021/12/23 06:22:54;;;;;;;52.70;24.50;;;-1.50;92.50;;;;;;5082250;28;20489;-46
2021/12/23 06:25:21;;;;;;;53.67;26.70;;;-1.50;92.40;;;;;;5085448;28;21376;-46
2021/12/23 06:27:48;;;;;;;120.63;54.00;;;-1.40;92.30;;;;;;5078714;28;20559;-46
2021/12/23 06:30:19;;;;;;;81.23;39.53;;;-1.40;92.20;;;;;;5081412;28;20471;-46
2021/12/23 06:32:47;;;;;;;76.90;39.97;;;-1.40;92.20;;;;;;5056581;28;20491;-45
2021/12/23 06:35:15;;;;;;;80.57;39.07;;;-1.50;92.00;;;;;;5085067;28;20536;-46
2021/12/23 06:41:05;;;;;;;60.93;29.00;;;-1.40;91.80;;;;;;5071563;28;20559;-46
2021/12/23 06:43:31;;;;;;;60.93;31.27;;;-1.40;91.80;;;;;;5079720;28;20470;-46
2021/12/23 06:46:00;;;;;;;50.33;25.60;;;-1.40;91.90;;;;;;5082326;28;20931;-46
2021/12/23 06:48:27;;;;;;;66.83;30.20;;;-1.40;91.90;;;;;;5083552;28;21013;-45
2021/12/23 06:50:55;;;;;;;64.00;31.10;;;-1.40;92.00;;;;;;5084056;28;20476;-45
2021/12/23 06:53:22;;;;;;;71.20;33.10;;;-1.40;92.10;;;;;;5080032;28;20474;-46
2021/12/23 06:55:50;;;;;;;78.33;35.20;;;-1.40;92.20;;;;;;5082892;28;21062;-47
2021/12/23 06:58:18;;;;;;;69.10;34.33;;;-1.50;91.90;;;;;;5081929;28;20486;-46
2021/12/23 07:00:45;;;;;;;64.07;34.97;;;-1.40;91.90;;;;;;5082893;28;20478;-45
2021/12/23 07:03:12;;;;;;;65.17;31.03;;;-1.40;92.00;;;;;;5079173;28;20985;-46
2021/12/23 07:05:39;;;;;;;80.40;35.20;;;-1.40;92.00;;;;;;5082089;28;20504;-45
2021/12/23 07:08:10;;;;;;;65.20;32.80;;;-1.40;92.00;;;;;;5083632;28;20491;-46
2021/12/23 07:10:37;;;;;;;65.70;31.70;;;-1.40;92.10;;;;;;5081988;28;20484;-46
2021/12/23 07:13:04;;;;;;;71.63;33.30;;;-1.40;92.10;;;;;;5085017;28;20524;-47
2021/12/23 07:15:33;;;;;;;70.63;33.07;;;-1.40;92.20;;;;;;5083689;28;20483;-45
2021/12/23 07:18:01;;;;;;;71.87;31.87;;;-1.40;92.20;;;;;;5055298;28;20467;-45
2021/12/23 07:20:29;;;;;;;68.57;31.13;;;-1.40;92.20;;;;;;5078849;28;20477;-46
2021/12/23 07:22:56;;;;;;;67.33;31.63;;;-1.30;92.30;;;;;;5083633;28;20529;-46
2021/12/23 07:25:23;;;;;;;59.07;29.50;;;-1.40;91.90;;;;;;5086532;28;20477;-46
2021/12/23 07:27:50;;;;;;;60.80;31.57;;;-1.40;92.30;;;;;;5080086;28;20486;-45
2021/12/23 07:30:19;;;;;;;60.63;28.73;;;-1.40;92.20;;;;;;5071681;28;20548;-46
2021/12/23 07:32:47;;;;;;;56.87;29.70;;;-1.30;92.50;;;;;;5085619;28;21049;-46
2021/12/23 07:35:15;;;;;;;51.00;27.00;;;-1.30;92.50;;;;;;5093793;28;20532;-46
2021/12/23 07:37:41;;;;;;;63.90;30.70;;;-1.40;92.70;;;;;;5079578;28;20495;-46
2021/12/23 07:40:13;;;;;;;62.13;30.60;;;-1.40;92.90;;;;;;5081081;28;20552;-46
2021/12/23 07:42:44;;;;;;;61.47;29.83;;;-1.40;92.90;;;;;;5075588;28;20558;-46
2021/12/23 07:45:10;;;;;;;58.23;27.93;;;-1.40;92.80;;;;;;5075585;28;20849;-46
2021/12/23 07:47:37;;;;;;;54.73;27.73;;;-1.40;93.40;;;;;;5078954;28;20546;-47
2021/12/23 07:50:06;;;;;;;58.33;30.00;;;-1.30;94.30;;;;;;5078399;28;20886;-46
2021/12/23 07:52:34;;;;;;;58.73;31.70;;;-1.30;94.00;;;;;;5082152;28;20472;-46
2021/12/23 07:55:00;;;;;;;53.03;26.13;;;-1.30;94.70;;;;;;5083862;28;20487;-46
2021/12/23 07:57:27;;;;;;;59.67;27.77;;;-1.00;98.30;;;;;;5082526;28;20479;-46
2021/12/23 07:59:54;;;;;;;57.13;28.37;;;-0.70;99.80;;;;;;5082726;28;20492;-46
2021/12/23 08:02:21;;;;;;;75.90;34.10;;;-0.40;99.50;;;;;;5070541;28;20537;-45
2021/12/23 08:04:48;;;;;;;70.20;34.30;;;0.00;99.90;;;;;;5076097;28;20493;-46
2021/12/23 08:07:16;;;;;;;72.07;32.90;;;0.40;99.90;;;;;;5070399;28;20480;-46
2021/12/23 08:09:42;;;;;;;75.37;37.73;;;0.70;99.90;;;;;;5079003;28;20531;-46
2021/12/23 08:12:10;;;;;;;61.80;32.13;;;1.00;99.90;;;;;;5082192;28;20858;-46
2021/12/23 08:14:37;;;;;;;54.07;24.77;;;1.10;99.90;;;;;;5073486;28;20493;-45
2021/12/23 08:17:04;;;;;;;58.13;27.70;;;1.30;99.90;;;;;;5081376;28;21259;-45
2021/12/23 08:19:31;;;;;;;59.43;29.27;;;1.50;99.90;;;;;;5059079;28;20469;-45
2021/12/23 08:21:57;;;;;;;39.43;21.40;;;1.70;99.90;;;;;;5047884;28;20997;-45
2021/12/23 08:24:25;;;;;;;57.70;31.73;;;1.90;99.90;;;;;;5064472;28;20837;-46
2021/12/23 08:26:53;;;;;;;45.77;27.93;;;2.00;99.90;;;;;;5062205;28;20853;-45
2021/12/23 08:29:22;;;;;;;55.47;35.00;;;2.10;99.90;;;;;;5067727;28;20476;-46
2021/12/23 08:31:53;;;;;;;35.40;20.47;;;2.20;99.80;;;;;;5061715;28;20916;-46
2021/12/23 08:34:20;;;;;;;48.90;24.70;;;2.30;99.60;;;;;;5063615;28;20489;-47
2021/12/23 08:36:46;;;;;;;49.30;26.33;;;2.40;99.70;;;;;;5056685;28;21259;-46
2021/12/23 08:39:13;;;;;;;30.47;17.50;;;2.40;99.60;;;;;;5059457;28;20892;-46
2021/12/23 08:41:41;;;;;;;19.43;10.80;;;2.50;99.60;;;;;;5036194;28;20778;-47
2021/12/23 08:44:08;;;;;;;33.37;19.17;;;2.60;99.40;;;;;;5064850;28;20555;-45
2021/12/23 08:46:35;;;;;;;36.07;23.60;;;2.60;99.30;;;;;;5068972;28;20495;-45
2021/12/23 08:49:03;;;;;;;41.93;24.90;;;2.60;99.30;;;;;;5068561;28;21000;-46
2021/12/23 08:51:30;;;;;;;44.50;22.93;;;2.60;99.40;;;;;;5060551;28;20885;-46
2021/12/23 08:53:57;;;;;;;45.80;23.60;;;2.80;99.30;;;;;;5069890;28;20620;-45
2021/12/23 08:56:23;;;;;;;46.40;26.40;;;2.80;99.30;;;;;;5063204;28;20477;-46
2021/12/23 08:58:51;;;;;;;37.93;19.73;;;2.90;99.30;;;;;;5067906;28;20488;-45
2021/12/23 09:01:18;;;;;;;47.90;25.50;;;3.00;99.30;;;;;;5063734;28;20469;-45
2021/12/23 09:03:45;;;;;;;41.03;22.33;;;3.00;99.10;;;;;;5067366;28;20527;-45
2021/12/23 09:06:11;;;;;;;49.50;24.60;;;3.10;99.20;;;;;;5065864;28;20519;-46
2021/12/23 09:08:38;;;;;;;42.90;23.90;;;3.10;99.00;;;;;;5060337;28;20546;-45
2021/12/23 09:11:05;;;;;;;53.37;27.87;;;3.10;99.00;;;;;;5065777;28;20509;-45
2021/12/23 09:13:33;;;;;;;47.80;30.50;;;3.10;99.00;;;;;;5070725;28;20489;-46
2021/12/23 09:16:01;;;;;;;39.33;22.50;;;3.10;99.00;;;;;;5059406;28;21122;-46
2021/12/23 09:18:27;;;;;;;34.97;15.53;;;3.20;99.10;;;;;;5060616;28;20483;-45
2021/12/23 09:20:55;;;;;;;44.97;22.60;;;3.30;99.20;;;;;;5067502;28;20992;-45
2021/12/23 09:23:23;;;;;;;36.50;24.80;;;3.40;99.10;;;;;;5067043;28;20478;-45
2021/12/23 09:25:52;;;;;;;44.67;23.00;;;3.40;99.10;;;;;;5064019;28;21032;-45
2021/12/23 09:28:28;;;;;;;49.17;27.50;;;3.40;99.10;;;;;;5058204;28;21168;-45
2021/12/23 09:33:42;;;;;;;36.30;21.73;;;3.50;98.80;;;;;;5059176;28;20591;-46
2021/12/23 09:36:10;;;;;;;29.10;19.70;;;3.60;98.80;;;;;;5059251;28;20534;-45
2021/12/23 09:38:37;;;;;;;38.43;20.63;;;3.60;98.80;;;;;;5054728;28;20482;-46
2021/12/23 09:41:09;;;;;;;37.43;20.50;;;3.70;98.80;;;;;;5068176;28;20916;-45
2021/12/23 09:43:36;;;;;;;39.30;21.53;;;3.80;98.80;;;;;;5038365;28;20555;-46
2021/12/23 09:46:03;;;;;;;46.33;22.83;;;3.80;98.80;;;;;;5045262;28;20500;-46
2021/12/23 09:48:32;;;;;;;35.50;20.00;;;3.90;98.80;;;;;;5056417;28;20493;-45
2021/12/23 09:51:04;;;;;;;37.23;21.10;;;4.00;98.70;;;;;;5066818;28;20501;-46
2021/12/23 09:53:32;;;;;;;35.93;17.80;;;4.10;98.60;;;;;;5053058;28;20474;-46
2021/12/23 09:56:00;;;;;;;29.47;21.10;;;4.20;98.60;;;;;;5054349;28;20484;-47
2021/12/23 09:58:27;;;;;;;38.90;25.30;;;4.10;98.50;;;;;;5059838;28;20482;-45
2021/12/23 10:00:54;;;;;;;34.80;19.17;;;4.10;98.50;;;;;;5058639;28;20595;-45
2021/12/23 10:03:23;;;;;;;39.30;21.00;;;4.20;98.60;;;;;;5058608;28;20899;-46
2021/12/23 10:05:49;;;;;;;33.80;17.57;;;4.30;98.70;;;;;;5055580;28;21624;-46
2021/12/23 10:08:18;;;;;;;34.73;18.23;;;4.30;98.50;;;;;;5061660;28;20482;-46
2021/12/23 10:10:49;;;;;;;28.73;17.93;;;4.30;98.60;;;;;;5067538;28;20543;-45
2021/12/23 10:30:18;;;;;;;34.63;20.17;;;4.60;98.20;;;;;;5027122;28;20520;-45
2021/12/23 10:38:38;;;;;;;33.00;18.80;;;4.90;98.00;;;;;;5064323;28;20551;-46
2021/12/23 10:41:08;;;;;;;26.77;13.87;;;5.00;97.80;;;;;;5061479;28;20578;-46
2021/12/23 10:43:38;;;;;;;28.33;17.90;;;5.10;98.00;;;;;;5060772;28;20735;-46
2021/12/23 10:46:07;;;;;;;34.70;18.50;;;5.20;97.90;;;;;;5056991;28;21003;-46
2021/12/23 10:48:45;;;;;;;29.80;16.87;;;5.20;97.90;;;;;;5065006;28;20999;-46
2021/12/23 10:51:17;;;;;;;31.47;17.73;;;5.30;97.90;;;;;;5072309;28;20745;-46
2021/12/23 10:53:55;;;;;;;29.50;18.37;;;5.30;98.00;;;;;;5067730;28;20571;-46
2021/12/23 10:59:14;;;;;;;34.10;22.17;;;5.40;98.10;;;;;;5059759;28;20520;-46
2021/12/23 11:02:08;;;;;;;36.93;21.27;;;5.40;98.10;;;;;;5053769;28;20490;-46
2021/12/23 11:04:57;;;;;;;32.23;21.60;;;5.40;98.00;;;;;;5069195;28;20490;-46
2021/12/23 11:07:27;;;;;;;36.17;21.13;;;5.40;98.40;;;;;;5069038;28;20475;-46
2021/12/23 11:10:03;;;;;;;31.70;19.83;;;5.50;98.40;;;;;;5055377;28;20491;-46
2021/12/23 11:37:57;;;;;;;23.73;14.77;;;6.10;97.80;;;;;;5042276;28;20481;-46
2021/12/23 11:40:50;;;;;;;21.57;12.17;;;6.30;97.60;;;;;;5064506;28;20684;-46
2021/12/23 11:43:43;;;;;;;24.73;15.30;;;6.30;97.40;;;;;;5071657;28;20479;-47
2021/12/23 11:46:12;;;;;;;28.70;12.93;;;6.40;97.30;;;;;;5067720;28;20685;-46
2021/12/23 11:48:43;;;;;;;23.67;13.30;;;6.40;97.30;;;;;;5071264;28;20473;-46
2021/12/23 11:51:15;;;;;;;20.43;10.67;;;6.40;97.00;;;;;;5066257;28;20472;-46
2021/12/23 11:53:42;;;;;;;22.37;14.60;;;6.30;97.20;;;;;;5069499;28;20483;-46
2021/12/23 11:56:14;;;;;;;27.17;15.60;;;6.30;97.10;;;;;;5056050;28;20483;-46
2021/12/23 11:58:43;;;;;;;24.87;11.93;;;6.30;96.90;;;;;;5081806;28;21167;-46
2021/12/23 12:01:16;;;;;;;27.50;15.33;;;6.30;97.10;;;;;;5069027;28;20597;-47
2021/12/23 12:03:54;;;;;;;24.57;14.23;;;6.30;97.20;;;;;;5066649;28;20943;-46
2021/12/23 12:06:23;;;;;;;22.03;10.40;;;6.30;96.90;;;;;;5057360;28;20479;-46
2021/12/23 12:08:53;;;;;;;21.37;12.97;;;6.30;96.70;;;;;;5067784;28;21183;-46
2021/12/23 12:11:22;;;;;;;19.30;11.47;;;6.40;96.90;;;;;;5065337;28;20482;-46
2021/12/23 12:13:49;;;;;;;30.03;17.47;;;6.40;96.90;;;;;;5057356;28;21036;-46
2021/12/23 12:16:36;;;;;;;29.47;18.80;;;6.30;97.20;;;;;;5068770;28;20530;-46
2021/12/23 12:19:06;;;;;;;19.67;12.23;;;6.40;97.00;;;;;;5059575;28;21028;-47
2021/12/23 12:21:35;;;;;;;21.57;16.10;;;6.30;96.70;;;;;;5070640;28;20480;-45
2021/12/23 12:24:16;;;;;;;23.43;14.77;;;6.30;96.70;;;;;;5070077;28;20472;-48
2021/12/23 12:26:55;;;;;;;27.07;15.70;;;6.40;96.90;;;;;;5066060;28;20486;-46
2021/12/23 12:29:27;;;;;;;24.60;16.53;;;6.50;97.00;;;;;;5072857;28;20484;-46
2021/12/23 12:31:55;;;;;;;25.13;16.30;;;6.40;96.90;;;;;;5067545;28;20920;-47
2021/12/23 12:34:31;;;;;;;27.80;14.00;;;6.50;96.80;;;;;;5057754;28;21206;-47
2021/12/23 12:36:59;;;;;;;22.47;14.33;;;6.50;96.90;;;;;;5069098;28;20502;-47
2021/12/23 12:39:31;;;;;;;23.87;14.63;;;6.60;96.80;;;;;;5070073;28;20488;-46
2021/12/23 12:42:03;;;;;;;9.63;7.43;;;6.60;96.50;;;;;;5071313;28;20485;-46
2021/12/23 12:44:47;;;;;;;28.47;16.03;;;6.60;96.60;;;;;;5071199;28;20567;-46
2021/12/23 12:47:25;;;;;;;20.57;11.33;;;6.60;96.50;;;;;;5055452;28;20521;-46
2021/12/23 12:50:04;;;;;;;23.40;14.67;;;6.70;96.70;;;;;;5060520;28;20478;-46
2021/12/23 12:52:34;;;;;;;19.70;11.67;;;6.70;96.60;;;;;;5056368;28;20893;-47
2021/12/23 12:55:06;;;;;;;15.13;10.10;;;6.70;96.80;;;;;;5068575;28;20484;-46
2021/12/23 12:57:37;;;;;;;20.93;10.83;;;6.80;96.50;;;;;;5067458;28;20483;-47
2021/12/23 13:00:28;;;;;;;22.03;14.37;;;6.80;96.60;;;;;;5071622;28;20475;-46
2021/12/23 13:03:01;;;;;;;22.77;11.33;;;6.80;96.60;;;;;;5064996;28;20472;-46
2021/12/23 13:05:34;;;;;;;22.07;13.70;;;6.90;96.50;;;;;;5071628;28;20512;-47
2021/12/23 13:08:07;;;;;;;9.10;5.93;;;6.90;96.40;;;;;;5072383;28;20477;-47
2021/12/23 13:10:35;;;;;;;8.40;5.70;;;7.00;96.50;;;;;;5067640;28;20458;-47
2021/12/23 13:13:05;;;;;;;20.77;13.70;;;7.00;96.40;;;;;;5067873;28;20484;-47
2021/12/23 13:15:34;;;;;;;19.33;12.63;;;7.00;96.50;;;;;;5068765;28;20481;-47
2021/12/23 13:18:06;;;;;;;19.80;13.37;;;7.00;96.40;;;;;;5068009;28;20526;-47
2021/12/23 13:20:46;;;;;;;20.63;12.50;;;7.10;96.30;;;;;;5062499;28;20476;-47
2021/12/23 13:23:18;;;;;;;15.47;12.17;;;7.10;96.20;;;;;;5058114;28;21147;-47
2021/12/23 13:25:51;;;;;;;21.70;12.60;;;7.20;96.30;;;;;;5049706;28;20498;-47
2021/12/23 13:28:24;;;;;;;16.87;10.70;;;7.20;96.40;;;;;;5037759;28;20618;-47
2021/12/23 13:30:51;;;;;;;24.23;12.57;;;7.20;96.40;;;;;;5055815;28;20493;-48
2021/12/23 13:33:20;;;;;;;22.33;12.27;;;7.30;96.10;;;;;;5062937;28;20469;-47
2021/12/23 13:35:47;;;;;;;19.70;13.07;;;7.30;96.20;;;;;;5054553;28;20472;-47
2021/12/23 13:38:39;;;;;;;20.53;12.63;;;7.40;96.00;;;;;;5058791;28;20866;-47
2021/12/23 13:41:15;;;;;;;21.50;13.97;;;7.50;96.00;;;;;;5047636;28;20722;-48
2021/12/23 13:43:42;;;;;;;18.77;12.30;;;7.60;96.00;;;;;;5074687;28;20487;-47